createdAt,value
2022-12-25T00:00:35.888Z,101234.72
2022-12-25T00:03:07.290Z,101238.91
2022-12-25T00:05:41.292Z,101241.38
2022-12-25T00:08:13.218Z,101243.53
2022-12-25T00:10:45.502Z,101256.78
2022-12-25T00:13:17.238Z,101252.72
2022-12-25T00:15:48.509Z,101270.53
2022-12-25T00:18:20.015Z,101271.38
2022-12-25T00:21:02.106Z,101253.19
2022-12-25T00:23:34.291Z,101262.38
2022-12-25T00:26:12.685Z,101264.94
2022-12-25T00:28:44.476Z,101262.38
2022-12-25T00:31:16.853Z,101273.69
2022-12-25T00:33:49.650Z,101275.28
2022-12-25T00:36:23.837Z,101273.53
2022-12-25T00:38:55.254Z,101267.97
2022-12-25T00:41:44.992Z,101277.72
2022-12-25T00:44:16.584Z,101288.13
2022-12-25T00:46:48.200Z,101283.78
2022-12-25T00:49:19.557Z,101289.81
2022-12-25T00:51:54.103Z,101300.00
2022-12-25T00:54:25.271Z,101299.84
2022-12-25T00:56:57.065Z,101285.44
2022-12-25T00:59:28.843Z,101305.31
2022-12-25T01:02:20.209Z,101314.06
2022-12-25T01:05:01.013Z,101307.34
2022-12-25T01:07:32.595Z,101317.41
2022-12-25T01:10:22.157Z,101316.53
2022-12-25T01:12:54.383Z,101327.81
2022-12-25T01:15:26.075Z,101316.38
2022-12-25T01:17:57.485Z,101333.19
2022-12-25T01:20:28.929Z,101338.59
2022-12-25T01:23:00.926Z,101341.91
2022-12-25T01:25:32.144Z,101346.28
2022-12-25T01:28:03.585Z,101340.63
2022-12-25T01:30:35.469Z,101349.63
2022-12-25T01:33:07.008Z,101355.00
2022-12-25T01:35:42.320Z,101236.53
2022-12-25T01:38:14.213Z,101349.63
2022-12-25T01:40:45.557Z,101357.34
2022-12-25T01:43:26.683Z,101353.53
2022-12-25T01:45:59.349Z,101363.75
2022-12-25T01:48:38.509Z,101241.91
2022-12-25T01:51:26.582Z,101363.75
2022-12-25T01:54:01.961Z,101310.47
2022-12-25T01:56:36.122Z,101357.97
2022-12-25T01:59:10.080Z,101298.41
2022-12-25T02:01:42.457Z,101365.31
2022-12-25T02:04:19.928Z,101357.88
2022-12-25T02:06:53.558Z,101358.56
2022-12-25T02:09:25.225Z,101355.03
2022-12-25T02:12:00.332Z,101353.16
2022-12-25T02:14:35.642Z,101367.09
2022-12-25T02:17:15.863Z,101343.75
2022-12-25T02:19:56.586Z,101352.13
2022-12-25T02:23:08.274Z,101352.88
2022-12-25T02:26:07.481Z,101352.03
2022-12-25T02:28:47.025Z,101334.31
2022-12-25T02:31:27.954Z,101287.88
2022-12-25T02:34:19.382Z,101345.00
2022-12-25T02:36:59.610Z,101353.53
2022-12-25T02:40:01.860Z,101350.06
2022-12-25T02:43:23.409Z,101354.84
2022-12-25T02:46:20.361Z,101298.44
2022-12-25T02:49:25.388Z,101338.19
2022-12-25T02:52:37.675Z,101344.13
2022-12-25T02:55:35.391Z,101335.38
2022-12-25T02:58:30.099Z,101321.63
2022-12-25T03:01:37.096Z,101319.97
2022-12-25T03:04:33.751Z,101339.84
2022-12-25T03:07:11.611Z,101335.94
2022-12-25T03:10:05.772Z,101268.69
2022-12-25T03:12:53.257Z,101335.09
2022-12-25T03:15:44.105Z,101340.59
2022-12-25T03:18:23.784Z,101309.75
2022-12-25T03:21:13.790Z,101323.59
2022-12-25T03:24:20.159Z,101252.16
2022-12-25T03:26:58.022Z,101334.94
2022-12-25T03:29:52.571Z,101292.97
2022-12-25T03:32:29.603Z,101330.44
2022-12-25T03:35:27.689Z,101328.31
2022-12-25T03:38:51.402Z,101304.56
2022-12-25T03:41:58.540Z,101320.34
2022-12-25T03:44:57.517Z,101248.75
2022-12-25T03:47:48.444Z,101292.69
2022-12-25T03:50:55.951Z,101313.47
2022-12-25T03:53:58.349Z,101314.00
2022-12-25T03:56:50.542Z,101250.97
2022-12-25T03:59:42.347Z,101304.41
2022-12-25T04:02:32.213Z,101298.00
2022-12-25T04:05:22.195Z,101293.25
2022-12-25T04:08:11.588Z,101285.66
2022-12-25T04:11:00.657Z,101285.06
2022-12-25T04:13:49.977Z,101275.31
2022-12-25T04:16:39.844Z,101258.47
2022-12-25T04:19:30.379Z,101219.59
2022-12-25T04:22:20.478Z,101268.31
2022-12-25T04:25:10.053Z,101254.56
2022-12-25T04:28:00.097Z,101259.22
2022-12-25T04:30:51.327Z,101253.81
2022-12-25T04:33:40.306Z,101248.66
2022-12-25T04:36:12.717Z,101225.56
2022-12-25T04:38:44.254Z,101228.75
2022-12-25T04:41:16.708Z,101231.06
2022-12-25T04:43:47.852Z,101193.56
2022-12-25T04:46:19.352Z,101200.47
2022-12-25T04:48:50.646Z,101215.28
2022-12-25T04:51:27.247Z,101200.56
2022-12-25T04:53:58.970Z,101211.22
2022-12-25T04:56:30.484Z,101205.41
2022-12-25T04:59:02.438Z,101181.25
2022-12-25T05:01:34.206Z,101197.94
2022-12-25T05:04:05.748Z,101190.47
2022-12-25T05:06:37.118Z,101187.75
2022-12-25T05:09:09.077Z,101161.78
2022-12-25T05:11:40.676Z,101170.94
2022-12-25T05:14:11.931Z,101165.13
2022-12-25T05:16:43.470Z,101168.84
2022-12-25T05:19:14.711Z,101155.59
2022-12-25T05:21:46.312Z,101145.19
2022-12-25T05:24:17.995Z,101147.50
2022-12-25T05:26:49.403Z,101142.72
2022-12-25T05:29:20.715Z,101145.94
2022-12-25T05:31:52.416Z,101115.31
2022-12-25T05:34:24.399Z,101126.13
2022-12-25T05:36:55.837Z,101122.16
2022-12-25T05:39:27.080Z,101104.44
2022-12-25T05:41:58.764Z,101112.97
2022-12-25T05:44:30.317Z,101095.28
2022-12-25T05:47:02.196Z,101077.97
2022-12-25T05:49:33.395Z,101093.16
2022-12-25T05:52:05.438Z,101086.50
2022-12-25T05:54:37.522Z,101085.63
2022-12-25T05:57:08.715Z,101082.13
2022-12-25T05:59:39.947Z,101080.22
2022-12-25T06:02:11.650Z,101076.06
2022-12-25T06:04:43.735Z,101076.22
2022-12-25T06:07:15.095Z,101076.00
2022-12-25T06:09:46.367Z,101055.97
2022-12-25T06:12:17.954Z,101058.91
2022-12-25T06:14:49.179Z,101056.63
2022-12-25T06:17:20.705Z,101045.19
2022-12-25T06:19:52.386Z,101038.16
2022-12-25T06:22:24.837Z,101038.72
2022-12-25T06:24:56.268Z,101030.81
2022-12-25T06:27:29.853Z,101035.59
2022-12-25T06:30:01.124Z,101023.13
2022-12-25T06:32:32.664Z,101016.31
2022-12-25T06:35:04.505Z,101022.13
2022-12-25T06:37:36.088Z,101004.03
2022-12-25T06:40:07.857Z,101013.19
2022-12-25T06:42:39.222Z,101003.59
2022-12-25T06:45:11.032Z,101003.63
2022-12-25T06:47:42.468Z,101007.34
2022-12-25T06:50:13.760Z,100994.91
2022-12-25T06:52:45.559Z,101000.31
2022-12-25T06:55:16.758Z,100999.47
2022-12-25T06:57:48.188Z,100992.44
2022-12-25T07:00:19.483Z,101008.31
2022-12-25T07:02:51.674Z,101002.13
2022-12-25T07:05:23.571Z,100995.91
2022-12-25T07:07:55.098Z,101002.19
2022-12-25T07:10:26.553Z,101001.38
2022-12-25T07:12:57.843Z,100987.25
2022-12-25T07:15:29.007Z,100987.06
2022-12-25T07:18:00.667Z,100982.34
2022-12-25T07:20:32.449Z,100971.91
2022-12-25T07:23:04.320Z,100983.38
2022-12-25T07:25:37.439Z,100979.91
2022-12-25T07:28:10.483Z,100978.47
2022-12-25T07:30:41.743Z,100965.34
2022-12-25T07:33:13.140Z,100979.91
2022-12-25T07:35:44.410Z,100980.56
2022-12-25T07:38:16.018Z,100984.72
2022-12-25T07:40:48.136Z,100982.41
2022-12-25T07:43:19.288Z,100983.66
2022-12-25T07:45:50.899Z,100982.63
2022-12-25T07:48:22.059Z,100971.63
2022-12-25T07:51:05.237Z,100987.81
2022-12-25T07:53:39.493Z,100984.50
2022-12-25T07:56:16.773Z,100927.75
2022-12-25T07:58:49.798Z,100971.59
2022-12-25T08:01:24.453Z,100918.16
2022-12-25T08:04:03.446Z,100918.16
2022-12-25T08:06:37.508Z,100908.41
2022-12-25T08:09:14.197Z,100985.47
2022-12-25T08:11:48.970Z,100978.19
2022-12-25T08:14:20.183Z,100982.78
2022-12-25T08:16:51.791Z,100978.00
2022-12-25T08:19:22.985Z,100976.56
2022-12-25T08:21:54.259Z,100978.63
2022-12-25T08:24:25.494Z,100982.75
2022-12-25T08:26:57.130Z,100987.53
2022-12-25T08:29:30.369Z,100985.25
2022-12-25T08:32:02.361Z,100969.59
2022-12-25T08:34:34.163Z,100975.25
2022-12-25T08:37:05.326Z,100990.22
2022-12-25T08:39:36.565Z,100987.66
2022-12-25T08:42:08.007Z,100994.72
2022-12-25T08:44:41.851Z,100976.84
2022-12-25T08:47:16.335Z,100990.97
2022-12-25T08:49:47.731Z,100998.00
2022-12-25T08:52:19.137Z,100997.56
2022-12-25T08:54:50.543Z,101000.91
2022-12-25T08:57:21.789Z,101005.03
2022-12-25T08:59:53.184Z,101005.44
2022-12-25T09:02:24.529Z,100998.78
2022-12-25T09:04:55.935Z,101014.16
2022-12-25T09:07:27.418Z,101005.63
2022-12-25T09:09:58.640Z,101015.44
2022-12-25T09:12:29.961Z,101016.06
2022-12-25T09:15:01.211Z,101018.53
2022-12-25T09:17:33.005Z,101022.06
2022-12-25T09:20:04.417Z,101016.66
2022-12-25T09:22:36.164Z,101024.22
2022-12-25T09:25:07.730Z,101010.19
2022-12-25T09:27:39.549Z,101020.81
2022-12-25T09:30:11.695Z,101034.53
2022-12-25T09:32:43.024Z,101035.34
2022-12-25T09:35:15.422Z,101035.34
2022-12-25T09:37:47.859Z,101038.91
2022-12-25T09:40:27.904Z,100989.47
2022-12-25T09:43:00.259Z,101034.59
2022-12-25T09:45:34.399Z,101048.19
2022-12-25T09:48:06.003Z,101042.91
2022-12-25T09:50:50.590Z,100987.66
2022-12-25T09:53:35.967Z,101048.31
2022-12-25T09:56:19.105Z,101044.97
2022-12-25T09:58:50.663Z,101054.31
2022-12-25T10:02:00.054Z,101011.41
2022-12-25T10:04:50.010Z,101059.25
2022-12-25T10:07:33.275Z,101055.53
2022-12-25T10:10:36.078Z,101010.66
2022-12-25T10:13:28.233Z,101065.09
2022-12-25T10:16:26.839Z,101055.81
2022-12-25T10:19:18.994Z,101067.41
2022-12-25T10:21:54.227Z,101066.81
2022-12-25T10:24:38.106Z,101068.47
2022-12-25T10:27:35.981Z,101085.94
2022-12-25T10:30:22.990Z,101087.59
2022-12-25T10:32:58.349Z,101015.25
2022-12-25T10:35:33.025Z,101070.91
2022-12-25T10:38:13.119Z,101080.50
2022-12-25T10:41:26.152Z,101099.22
2022-12-25T10:44:00.048Z,101102.53
2022-12-25T10:46:31.953Z,101100.47
2022-12-25T10:49:05.485Z,101098.63
2022-12-25T10:51:41.530Z,101053.50
2022-12-25T10:54:51.986Z,101116.09
2022-12-25T10:57:25.380Z,101065.38
2022-12-25T10:59:58.560Z,101121.72
2022-12-25T11:02:33.040Z,101128.41
2022-12-25T11:05:15.773Z,101070.56
2022-12-25T11:07:55.784Z,101077.63
2022-12-25T11:10:37.101Z,101105.94
2022-12-25T11:13:19.633Z,101147.16
2022-12-25T11:15:51.487Z,101139.22
2022-12-25T11:18:24.365Z,101081.41
2022-12-25T11:20:59.591Z,101140.50
2022-12-25T11:23:52.303Z,101157.13
2022-12-25T11:26:23.581Z,101138.84
2022-12-25T11:28:57.334Z,101153.44
2022-12-25T11:31:43.332Z,101126.78
2022-12-25T11:34:26.764Z,101153.41
2022-12-25T11:36:59.887Z,101148.41
2022-12-25T11:39:43.380Z,101153.84
2022-12-25T11:42:37.020Z,101162.97
2022-12-25T11:45:49.729Z,101163.59
2022-12-25T11:48:57.532Z,101160.88
2022-12-25T11:51:34.690Z,101151.91
2022-12-25T11:54:32.407Z,101166.72
2022-12-25T11:57:10.586Z,101167.13
2022-12-25T12:00:05.945Z,101171.47
2022-12-25T12:02:46.626Z,101181.06
2022-12-25T12:05:27.811Z,101185.44
2022-12-25T12:08:05.093Z,101196.91
2022-12-25T12:11:17.350Z,101190.84
2022-12-25T12:14:07.739Z,101202.09
2022-12-25T12:16:39.264Z,101206.44
2022-12-25T12:19:27.999Z,101207.47
2022-12-25T12:22:05.859Z,101144.75
2022-12-25T12:24:48.122Z,101206.84
2022-12-25T12:27:25.605Z,101202.38
2022-12-25T12:30:00.644Z,101156.22
2022-12-25T12:32:54.844Z,101227.44
2022-12-25T12:35:30.404Z,101227.88
2022-12-25T12:38:27.169Z,101237.00
2022-12-25T12:41:08.580Z,101184.94
2022-12-25T12:46:41.855Z,101214.94
2022-12-25T12:49:26.489Z,101247.84
2022-12-25T12:52:22.519Z,101264.88
2022-12-25T12:55:02.877Z,101257.41
2022-12-25T12:57:43.006Z,101258.47
2022-12-25T13:00:22.656Z,101206.13
2022-12-25T13:03:08.538Z,101270.28
2022-12-25T13:06:10.948Z,101262.38
2022-12-25T13:08:42.796Z,101272.63
2022-12-25T13:11:28.187Z,101235.06
2022-12-25T13:14:03.379Z,101209.03
2022-12-25T13:16:41.916Z,101279.69
2022-12-25T13:19:27.341Z,101272.81
2022-12-25T13:22:04.354Z,101289.44
2022-12-25T13:24:45.344Z,101272.81
2022-12-25T13:27:35.649Z,101279.81
2022-12-25T13:30:21.854Z,101247.66
2022-12-25T13:32:53.647Z,101277.03
2022-12-25T13:35:25.843Z,101279.72
2022-12-25T13:37:58.271Z,101290.34
2022-12-25T13:40:30.746Z,101232.38
2022-12-25T13:43:02.575Z,101297.41
2022-12-25T13:45:36.117Z,101302.09
2022-12-25T13:48:22.156Z,101300.81
2022-12-25T13:51:04.202Z,101306.00
2022-12-25T13:53:35.563Z,101313.25
2022-12-25T13:59:47.345Z,101319.81
2022-12-25T14:06:31.264Z,101324.31
2022-12-25T14:09:02.885Z,101336.13
2022-12-25T14:11:35.184Z,101332.56
2022-12-25T14:14:18.160Z,101326.28
2022-12-25T14:16:51.877Z,101347.47
2022-12-25T14:19:35.574Z,101343.06
2022-12-25T14:22:50.211Z,101341.97
2022-12-25T14:25:52.416Z,101332.78
2022-12-25T14:28:42.008Z,101311.94
2022-12-25T14:31:14.268Z,101333.63
2022-12-25T14:33:46.475Z,101335.88
2022-12-25T14:36:18.476Z,101334.03
2022-12-25T14:39:06.407Z,101336.47
2022-12-25T14:41:41.033Z,101332.28
2022-12-25T14:44:30.830Z,101328.91
2022-12-25T14:47:19.551Z,101335.03
2022-12-25T14:49:51.007Z,101310.97
2022-12-25T14:52:47.988Z,101335.13
2022-12-25T14:55:25.477Z,101286.66
2022-12-25T14:58:00.750Z,101315.16
2022-12-25T15:00:38.838Z,101239.13
2022-12-25T15:03:22.719Z,101323.78
2022-12-25T15:06:22.216Z,101312.53
2022-12-25T15:09:02.447Z,101245.25
2022-12-25T15:11:34.291Z,101326.59
2022-12-25T15:14:05.704Z,101324.28
2022-12-25T15:16:44.672Z,101240.59
2022-12-25T15:19:36.989Z,101330.63
2022-12-25T15:22:08.842Z,101315.09
2022-12-25T15:24:40.259Z,101319.84
2022-12-25T15:27:22.907Z,101318.56
2022-12-25T15:30:11.127Z,101308.94
2022-12-25T15:32:43.051Z,101313.84
2022-12-25T15:35:22.810Z,101309.06
2022-12-25T15:37:54.067Z,101308.22
2022-12-25T15:40:25.848Z,101309.91
2022-12-25T15:42:57.377Z,101306.19
2022-12-25T15:45:32.186Z,101311.13
2022-12-25T15:48:03.994Z,101299.03
2022-12-25T15:50:38.172Z,101312.78
2022-12-25T15:53:09.582Z,101308.44
2022-12-25T15:55:42.087Z,101314.00
2022-12-25T15:58:16.612Z,101297.28
2022-12-25T16:00:48.006Z,101309.84
2022-12-25T16:03:19.330Z,101293.16
2022-12-25T16:05:51.028Z,101315.63
2022-12-25T16:08:23.369Z,101310.22
2022-12-25T16:10:55.727Z,101308.94
2022-12-25T16:13:28.336Z,101310.59
2022-12-25T16:16:00.017Z,101312.25
2022-12-25T16:18:32.191Z,101301.97
2022-12-25T16:21:08.954Z,101306.53
2022-12-25T16:23:41.732Z,101328.44
2022-12-25T16:26:13.198Z,101310.06
2022-12-25T16:28:44.899Z,101308.03
2022-12-25T16:31:16.242Z,101308.72
2022-12-25T16:33:47.604Z,101311.44
2022-12-25T16:36:23.569Z,101316.00
2022-12-25T16:38:58.219Z,101310.59
2022-12-25T16:41:29.631Z,101308.47
2022-12-25T16:44:01.343Z,101225.75
2022-12-25T16:46:32.598Z,101305.59
2022-12-25T16:49:04.339Z,101311.16
2022-12-25T16:51:35.668Z,101312.13
2022-12-25T16:54:07.823Z,101308.03
2022-12-25T16:56:40.125Z,101312.75
2022-12-25T16:59:12.191Z,101313.16
2022-12-25T17:01:46.941Z,101302.09
2022-12-25T17:04:19.028Z,101309.19
2022-12-25T17:06:51.258Z,101301.72
2022-12-25T17:09:22.342Z,101301.31
2022-12-25T17:11:52.962Z,101292.13
2022-12-25T17:14:23.633Z,101304.13
2022-12-25T17:16:54.405Z,101290.81
2022-12-25T17:19:28.353Z,101295.38
2022-12-25T17:22:01.138Z,101294.53
2022-12-25T17:24:32.126Z,101292.84
2022-12-25T17:27:03.175Z,101284.13
2022-12-25T17:29:33.977Z,101281.44
2022-12-25T17:32:04.787Z,101279.75
2022-12-25T17:34:35.593Z,101274.75
2022-12-25T17:37:06.700Z,101271.22
2022-12-25T17:39:37.323Z,101275.78
2022-12-25T17:42:07.979Z,101273.09
2022-12-25T17:44:38.976Z,101279.47
2022-12-25T17:47:09.775Z,101266.38
2022-12-25T17:49:40.568Z,101270.78
2022-12-25T17:52:11.328Z,101269.06
2022-12-25T17:54:42.281Z,101265.56
2022-12-25T17:57:12.822Z,101265.75
2022-12-25T17:59:43.565Z,101260.38
2022-12-25T18:02:14.348Z,101265.75
2022-12-25T18:04:45.078Z,101264.06
2022-12-25T18:07:16.020Z,101253.50
2022-12-25T18:09:46.626Z,101249.94
2022-12-25T18:12:17.127Z,101252.84
2022-12-25T18:14:47.782Z,101257.41
2022-12-25T18:17:18.400Z,101254.03
2022-12-25T18:19:51.737Z,101252.38
2022-12-25T18:22:23.865Z,101253.38
2022-12-25T18:24:54.602Z,101249.03
2022-12-25T18:27:27.105Z,101247.38
2022-12-25T18:29:57.957Z,101244.03
2022-12-25T18:32:28.570Z,101240.69
2022-12-25T18:34:59.484Z,101240.69
2022-12-25T18:37:35.851Z,101242.72
2022-12-25T18:40:10.789Z,101235.66
2022-12-25T18:42:41.840Z,101225.25
2022-12-25T18:45:13.703Z,101236.00
2022-12-25T18:47:44.456Z,101236.00
2022-12-25T18:50:15.239Z,101240.75
2022-12-25T18:52:49.304Z,101238.25
2022-12-25T18:55:22.106Z,101231.19
2022-12-25T18:57:52.665Z,101230.16
2022-12-25T19:00:24.153Z,101226.00
2022-12-25T19:02:59.379Z,101226.00
2022-12-25T19:05:30.508Z,101229.69
2022-12-25T19:08:00.998Z,101223.69
2022-12-25T19:10:31.908Z,101224.31
2022-12-25T19:13:02.931Z,101222.66
2022-12-25T19:15:34.016Z,101214.56
2022-12-25T19:18:04.667Z,101210.22
2022-12-25T19:20:35.334Z,101216.44
2022-12-25T19:23:06.010Z,101206.22
2022-12-25T19:25:36.672Z,101212.91
2022-12-25T19:28:07.309Z,101213.91
2022-12-25T19:30:39.565Z,101207.88
2022-12-25T19:33:17.483Z,101206.22
2022-12-25T19:35:49.763Z,101218.84
2022-12-25T19:38:21.693Z,101210.94
2022-12-25T19:41:04.473Z,101209.28
2022-12-25T19:43:36.476Z,101210.31
2022-12-25T19:46:08.233Z,101218.38
2022-12-25T19:48:38.864Z,101209.66
2022-12-25T19:51:36.370Z,101212.34
2022-12-25T19:54:07.532Z,101210.84
2022-12-25T19:56:38.359Z,101214.56
2022-12-25T19:59:09.274Z,101208.34
2022-12-25T20:01:40.573Z,101212.06
2022-12-25T20:04:11.960Z,101213.09
2022-12-25T20:06:44.130Z,101209.53
2022-12-25T20:09:17.075Z,101212.44
2022-12-25T20:11:50.928Z,101216.16
2022-12-25T20:14:21.921Z,101216.16
2022-12-25T20:16:52.647Z,101211.97
2022-12-25T20:19:23.248Z,101216.50
2022-12-25T20:21:55.207Z,101212.16
2022-12-25T20:24:26.435Z,101213.81
2022-12-25T20:26:59.200Z,101208.63
2022-12-25T20:29:30.406Z,101206.97
2022-12-25T20:32:01.139Z,101214.19
2022-12-25T20:34:31.801Z,101204.44
2022-12-25T20:37:02.462Z,101211.84
2022-12-25T20:39:33.004Z,101211.84
2022-12-25T20:42:03.594Z,101204.81
2022-12-25T20:44:34.567Z,101200.47
2022-12-25T20:47:05.246Z,101206.84
2022-12-25T20:49:36.517Z,101206.84
2022-12-25T20:52:07.512Z,101213.44
2022-12-25T20:54:38.830Z,101212.59
2022-12-25T20:57:10.245Z,101217.97
2022-12-25T20:59:41.727Z,101215.28
2022-12-25T21:02:33.899Z,101212.59
2022-12-25T21:05:07.914Z,101229.78
2022-12-25T21:07:38.699Z,101230.78
2022-12-25T21:10:09.879Z,101225.41
2022-12-25T21:12:40.503Z,101227.47
2022-12-25T21:15:15.406Z,101231.81
2022-12-25T21:17:46.548Z,101234.50
2022-12-25T21:20:17.289Z,101238.22
2022-12-25T21:22:48.030Z,101237.38
2022-12-25T21:25:18.730Z,101234.88
2022-12-25T21:27:49.293Z,101241.91
2022-12-25T21:30:20.038Z,101234.88
2022-12-25T21:33:09.004Z,101234.03
2022-12-25T21:35:39.755Z,101233.19
2022-12-25T21:38:10.361Z,101238.94
2022-12-25T21:40:41.421Z,101238.94
2022-12-25T21:43:14.409Z,101238.94
2022-12-25T21:45:45.129Z,101236.44
2022-12-25T21:48:15.698Z,101238.09
2022-12-25T21:51:04.546Z,101244.69
2022-12-25T21:53:35.190Z,101243.03
2022-12-25T21:56:06.246Z,101249.22
2022-12-25T21:58:37.165Z,101243.03
2022-12-25T22:01:08.185Z,101251.25
2022-12-25T22:03:39.033Z,101259.53
2022-12-25T22:06:27.937Z,101251.97
2022-12-25T22:08:58.879Z,101263.56
2022-12-25T22:11:47.626Z,101261.91
2022-12-25T22:14:51.998Z,101256.50
2022-12-25T22:17:47.309Z,101256.03
2022-12-25T22:20:19.448Z,101263.44
2022-12-25T22:22:50.934Z,101253.72
2022-12-25T22:25:21.728Z,101263.44
2022-12-25T22:27:53.021Z,101264.66
2022-12-25T22:30:25.364Z,101268.38
2022-12-25T22:32:56.469Z,101266.69
2022-12-25T22:35:27.344Z,101268.72
2022-12-25T22:37:58.037Z,101259.81
2022-12-25T22:40:29.038Z,101265.38
2022-12-25T22:43:00.067Z,101271.94
2022-12-25T22:45:30.693Z,101265.75
2022-12-25T22:48:01.344Z,101272.31
2022-12-25T22:50:31.926Z,101278.53
2022-12-25T22:53:02.598Z,101280.53
2022-12-25T22:55:33.237Z,101278.88
2022-12-25T22:58:04.053Z,101286.28
2022-12-25T23:00:35.067Z,101285.47
2022-12-25T23:03:05.878Z,101291.31
2022-12-25T23:05:36.459Z,101295.84
2022-12-25T23:08:07.641Z,101295.31
2022-12-25T23:10:38.433Z,101292.94
2022-12-25T23:13:28.618Z,101288.19
2022-12-25T23:15:59.232Z,101288.50
2022-12-25T23:18:48.174Z,101297.53
2022-12-25T23:21:37.952Z,101303.56
2022-12-25T23:24:28.542Z,101311.31
2022-12-25T23:26:59.961Z,101321.34
2022-12-25T23:29:41.292Z,101316.59
2022-12-25T23:32:13.803Z,101315.22
2022-12-25T23:34:46.488Z,101319.22
2022-12-25T23:37:17.392Z,101322.56
2022-12-25T23:39:48.496Z,101326.59
2022-12-25T23:42:19.479Z,101324.16
2022-12-25T23:44:50.417Z,101336.91
2022-12-25T23:47:20.981Z,101335.53
2022-12-25T23:49:51.944Z,101334.78
2022-12-25T23:52:22.650Z,101350.56
2022-12-25T23:54:53.341Z,101344.66
2022-12-25T23:57:24.253Z,101350.69
2022-12-25T23:59:55.618Z,101349.00
